Impacts METAR Board INFO
IDs:

KPHL - Philadelphia Intl, PA, US

Updated at: 1747 UTC 25 Feb 2018
Potential Impact None Slight Moderate High
Time25/05Z 25/06Z 25/07Z 25/08Z 25/09Z 25/10Z 25/11Z 25/12Z 25/13Z 25/14Z 25/15Z 25/16Z 25/17Z
VIS10 10 8 10 10 10 6 6 3 10 3 10 10
CIG42 40 9 11 11 10 7 8 6 7 7 13 7
CoverOVCOVCOVCOVCOVCOVCOVCOVCOVCOVCOVCOVCOVC
FltCatVFRVFRIFRMVFRMVFRMVFRIFRIFRIFRIFRIFRMVFRIFR
WX-----RA-RA-RA-RA+RA BRRA BR+RA BR-RARA BR-RA-RA
WDir708080808080706050703306050
WSpd7 6 7 11 9 11 5 7 5 5 9 6 7
WGst-- -- -- -- -- -- -- -- -- -- 18 -- --
Raw hourly METARs
KPHL 250454Z 07007KT 10SM OVC042 08/06 A3016 RMK AO2 RAE0358 SLP211 P0000 T00780056 401000067 $
KPHL 250554Z 08006KT 10SM FEW010 OVC040 08/06 A3016 RMK AO2 RAB40E50 SLP211 P0000 60001 T00780061 10094 20078 56012 $
KPHL 250654Z 08007KT 8SM -RA BKN009 OVC030 08/07 A3013 RMK AO2 RAB14 SLP203 P0001 T00780067 $
KPHL 250754Z 08011KT 10SM -RA BKN011 OVC029 07/06 A3010 RMK AO2 PRESFR SLP191 P0004 T00720061 $
KPHL 250854Z 08009KT 10SM -RA OVC011 07/06 A3007 RMK AO2 SLP183 P0008 60013 T00720061 57028 $
KPHL 250954Z 08011KT 10SM -RA OVC010 07/06 A3007 RMK AO2 SLP181 P0005 T00670056 $
KPHL 251056Z 07005KT 6SM +RA BR OVC007 07/06 A3005 RMK AO2 P0002 T00670056 $
KPHL 251156Z 06007KT 6SM RA BR OVC008 06/06 A3003 RMK AO2 P0001 T00610056 $
KPHL 251302Z 05005KT 3SM R09R/6000VP6000FT +RA BR BKN006 OVC011 06/06 A3002 RMK AO2 CIG 005V009 P0002 T00610056 $
KPHL 251359Z 07005KT 10SM -RA BKN007 OVC013 07/06 A2999 RMK AO2 CIG 005V009 P0000 T00720061 $
KPHL 251454Z 33009G18KT 310V090 3SM RA BR OVC007 07/07 A3002 RMK AO2 SLP165 CIG 005V009 P0008 60026 T00720067 56001 $
KPHL 251554Z 06006KT 10SM -RA SCT007 OVC013 08/07 A2999 RMK AO2 SLP154 P0007 T00780067 $
KPHL 251654Z 05007KT 010V090 10SM -RA BKN007 OVC013 08/07 A2998 RMK AO2 RAE14B33 SLP150 CIG 006V009 P0001 T00780067 $